Pine View, New Mexico
Current Conditions -  °F | °C
As of 11:15 AM on Sunday 25 Jan 2015 (Local Time) from KSKX Reporting Station
Clear Clear  
Wind Chill:   Ceiling: Unl
Heat Index:   Visibility: 10mi
Dew Point: -7°   Wind: 0mph
Humidity: 48%   Direction: NA
Pressure: 30.33"   Gusts: NA
Location:  36.1892°N, 105.688°W
Report Text: KSKX 251815Z AUTO 00000KT 10SM CLR 03/M07 A3033 RMK AO1
Loading
Personal Weather Stations






























Interactive Weather Map New forecast layout! Learn more

10-Day Weather Forecast

Advertisements
Track Severe Weather on mobile